BUF weather

Buffalo Niagara International Airport
Buffalo, New York, United States

Public forecast

Using degrees Fahrenheit for public forecast. Weather courtesy of forecast.io.

Current aviation weather report (METAR) for Buffalo Niagara International Airport

Retrieved 2019/10/21 02:54 UTC (51 minutes ago):

KBUF 210254Z 00000KT 10SM CLR 09/07 A2999 RMK AO2 SLP159 T00940067 53014

Aviation forecast (TAF) for Buffalo Niagara International Airport

Retrieved 2019-10-21 00:22 UTC (3 hours ago):

TAF KBUF 202320Z 2100/2124 VRB03KT P6SM FEW250 FM211300 10004KT P6SM SCT250 FM212100 11008KT P6SM BKN200